createdAt,value
2023-02-28T00:03:05.952Z,89
2023-02-28T00:13:06.333Z,88
2023-02-28T00:23:06.718Z,88
2023-02-28T00:33:06.865Z,88
2023-02-28T00:43:07.496Z,88
2023-02-28T00:53:07.875Z,88
2023-02-28T01:03:08.298Z,89
2023-02-28T01:13:08.788Z,90
2023-02-28T01:23:09.043Z,89
2023-02-28T01:33:09.997Z,89
2023-02-28T01:43:10.784Z,89
2023-02-28T01:53:11.334Z,90
2023-02-28T02:03:11.722Z,89
2023-02-28T02:13:12.484Z,89
2023-02-28T02:23:13.320Z,89
2023-02-28T02:33:13.491Z,91
2023-02-28T02:53:15.195Z,91
2023-02-28T03:03:15.506Z,93
2023-02-28T03:13:15.659Z,91
2023-02-28T03:23:16.647Z,91
2023-02-28T03:33:16.941Z,92
2023-02-28T03:43:17.041Z,93
2023-02-28T03:53:18.031Z,92
2023-02-28T04:03:18.474Z,93
2023-02-28T04:13:19.147Z,92
2023-02-28T04:23:19.592Z,92
2023-02-28T04:33:20.071Z,92
2023-02-28T04:43:20.921Z,92
2023-02-28T04:53:21.364Z,92
2023-02-28T05:03:21.690Z,93
2023-02-28T05:13:22.420Z,93
2023-02-28T05:23:23.426Z,93
2023-02-28T05:33:23.847Z,93
2023-02-28T05:43:24.405Z,94
2023-02-28T06:03:25.625Z,94
2023-02-28T06:13:26.173Z,93
2023-02-28T06:23:26.807Z,95
2023-02-28T06:33:27.103Z,95
2023-02-28T06:53:27.683Z,94
2023-02-28T07:03:28.577Z,93
2023-02-28T07:13:28.874Z,93
2023-02-28T07:23:29.428Z,92
2023-02-28T07:33:30.166Z,91
2023-02-28T07:43:31.140Z,89
2023-02-28T07:53:31.432Z,87
2023-02-28T08:03:32.445Z,84
2023-02-28T08:13:33.317Z,82
2023-02-28T08:23:33.985Z,79
2023-02-28T08:43:35.300Z,73
2023-02-28T08:53:36.015Z,71
2023-02-28T09:03:36.844Z,69
2023-02-28T09:13:37.505Z,67
2023-02-28T09:23:38.207Z,64
2023-02-28T09:33:38.441Z,62
2023-02-28T09:43:38.677Z,55
2023-02-28T09:53:39.047Z,54
2023-02-28T10:03:39.951Z,56
2023-02-28T10:13:40.407Z,55
2023-02-28T10:33:41.927Z,53
2023-02-28T10:43:43.018Z,54
2023-02-28T10:53:59.478Z,57
2023-02-28T11:03:44.450Z,57
2023-02-28T11:13:45.518Z,54
2023-02-28T11:23:46.591Z,55
2023-02-28T11:33:47.587Z,55
2023-02-28T11:53:48.598Z,53
2023-02-28T12:03:49.039Z,54
2023-02-28T12:13:49.799Z,54
2023-02-28T12:23:50.514Z,53
2023-02-28T12:33:50.848Z,53
2023-02-28T12:43:51.565Z,55
2023-02-28T12:53:52.544Z,55
2023-02-28T13:03:53.156Z,55
2023-02-28T13:23:54.788Z,57
2023-02-28T13:33:55.082Z,58
2023-02-28T13:43:55.701Z,57
2023-02-28T13:53:56.630Z,58
2023-02-28T14:03:57.537Z,57
2023-02-28T14:13:57.718Z,58
2023-02-28T14:23:58.084Z,58
2023-02-28T14:33:58.475Z,58
2023-02-28T14:43:59.310Z,58
2023-02-28T14:53:59.802Z,59
2023-02-28T15:04:00.629Z,59
2023-02-28T15:14:01.195Z,60
2023-02-28T15:24:01.603Z,61
2023-02-28T15:34:02.168Z,61
2023-02-28T15:44:02.984Z,61
2023-02-28T15:54:04.019Z,61
2023-02-28T16:14:05.549Z,61
2023-02-28T16:24:05.869Z,61
2023-02-28T16:34:06.276Z,62
2023-02-28T16:44:07.233Z,63
2023-02-28T16:54:07.397Z,64
2023-02-28T17:04:08.248Z,65
2023-02-28T17:14:08.421Z,66
2023-02-28T17:34:08.906Z,68
2023-02-28T17:44:09.765Z,68
2023-02-28T17:54:10.177Z,69
2023-02-28T18:04:11.005Z,70
2023-02-28T18:24:12.422Z,71
2023-02-28T18:34:13.322Z,72
2023-02-28T18:54:22.713Z,73
2023-02-28T19:14:15.750Z,75
2023-02-28T19:34:17.604Z,75
2023-02-28T19:54:17.579Z,77
2023-02-28T20:14:19.518Z,78
2023-02-28T20:34:21.217Z,79
2023-02-28T20:44:21.471Z,79
2023-02-28T20:54:21.571Z,79
2023-02-28T21:04:23.007Z,80
2023-02-28T21:14:22.620Z,80
2023-02-28T21:24:22.485Z,81
2023-02-28T21:44:23.729Z,82
2023-02-28T21:54:24.015Z,82
2023-02-28T22:04:24.897Z,82
2023-02-28T22:14:25.433Z,83
2023-02-28T22:24:25.861Z,83
2023-02-28T22:34:26.675Z,82
2023-02-28T22:44:27.154Z,83
2023-02-28T22:54:27.298Z,83
2023-02-28T23:04:28.422Z,83
2023-02-28T23:14:29.086Z,84
2023-02-28T23:24:30.382Z,84
2023-02-28T23:34:31.194Z,83
2023-02-28T23:44:32.039Z,84
2023-02-28T23:54:33.121Z,84
